sensor_id;sensor_type;location;lat;lon;timestamp;temperature;humidity
9103;DHT22;4587;51.434;6.788;2024-02-04T00:01:50;11.00;99.90
9103;DHT22;4587;51.434;6.788;2024-02-04T00:04:16;11.10;99.90
9103;DHT22;4587;51.434;6.788;2024-02-04T00:06:41;11.10;99.90
9103;DHT22;4587;51.434;6.788;2024-02-04T00:09:07;11.00;99.90
9103;DHT22;4587;51.434;6.788;2024-02-04T00:11:33;11.10;99.90
9103;DHT22;4587;51.434;6.788;2024-02-04T00:14:00;11.10;99.90
9103;DHT22;4587;51.434;6.788;2024-02-04T00:16:25;11.20;99.90
9103;DHT22;4587;51.434;6.788;2024-02-04T00:18:51;11.20;99.90
9103;DHT22;4587;51.434;6.788;2024-02-04T00:21:16;11.20;99.90
9103;DHT22;4587;51.434;6.788;2024-02-04T00:23:42;11.20;99.90
9103;DHT22;4587;51.434;6.788;2024-02-04T00:26:07;11.10;99.90
9103;DHT22;4587;51.434;6.788;2024-02-04T00:28:33;11.10;99.90
9103;DHT22;4587;51.434;6.788;2024-02-04T00:30:58;11.10;99.90
9103;DHT22;4587;51.434;6.788;2024-02-04T00:33:25;11.10;99.90
9103;DHT22;4587;51.434;6.788;2024-02-04T00:35:50;11.00;99.90
9103;DHT22;4587;51.434;6.788;2024-02-04T00:38:16;11.10;99.90
9103;DHT22;4587;51.434;6.788;2024-02-04T00:40:42;11.10;99.90
9103;DHT22;4587;51.434;6.788;2024-02-04T00:43:07;11.10;99.90
9103;DHT22;4587;51.434;6.788;2024-02-04T00:45:33;11.00;99.90
9103;DHT22;4587;51.434;6.788;2024-02-04T00:47:58;11.00;99.90
9103;DHT22;4587;51.434;6.788;2024-02-04T00:50:24;11.00;99.90
9103;DHT22;4587;51.434;6.788;2024-02-04T00:52:49;11.00;99.90
9103;DHT22;4587;51.434;6.788;2024-02-04T00:55:15;11.00;99.90
9103;DHT22;4587;51.434;6.788;2024-02-04T00:57:40;11.00;99.90
9103;DHT22;4587;51.434;6.788;2024-02-04T01:00:07;11.00;99.90
9103;DHT22;4587;51.434;6.788;2024-02-04T01:02:33;11.00;99.90
9103;DHT22;4587;51.434;6.788;2024-02-04T01:04:59;11.10;99.90
9103;DHT22;4587;51.434;6.788;2024-02-04T01:07:25;11.00;99.90
9103;DHT22;4587;51.434;6.788;2024-02-04T01:09:50;11.00;99.90
9103;DHT22;4587;51.434;6.788;2024-02-04T01:12:16;11.00;99.90
9103;DHT22;4587;51.434;6.788;2024-02-04T01:14:41;11.00;99.90
9103;DHT22;4587;51.434;6.788;2024-02-04T01:17:07;11.00;99.90
9103;DHT22;4587;51.434;6.788;2024-02-04T01:19:33;11.00;99.90
9103;DHT22;4587;51.434;6.788;2024-02-04T01:21:58;11.00;99.90
9103;DHT22;4587;51.434;6.788;2024-02-04T01:24:24;11.00;99.90
9103;DHT22;4587;51.434;6.788;2024-02-04T01:26:50;11.00;99.90
9103;DHT22;4587;51.434;6.788;2024-02-04T01:29:16;11.00;99.90
9103;DHT22;4587;51.434;6.788;2024-02-04T01:31:42;10.90;99.90
9103;DHT22;4587;51.434;6.788;2024-02-04T01:34:07;11.00;99.90
9103;DHT22;4587;51.434;6.788;2024-02-04T01:36:33;11.00;99.90
9103;DHT22;4587;51.434;6.788;2024-02-04T01:38:58;11.00;99.90
9103;DHT22;4587;51.434;6.788;2024-02-04T01:41:24;11.00;99.90
9103;DHT22;4587;51.434;6.788;2024-02-04T01:43:53;11.00;99.90
9103;DHT22;4587;51.434;6.788;2024-02-04T01:46:18;11.00;99.90
9103;DHT22;4587;51.434;6.788;2024-02-04T01:48:44;11.00;99.90
9103;DHT22;4587;51.434;6.788;2024-02-04T01:51:10;11.00;99.90
9103;DHT22;4587;51.434;6.788;2024-02-04T01:53:36;11.00;99.90
9103;DHT22;4587;51.434;6.788;2024-02-04T01:56:04;11.00;99.90
9103;DHT22;4587;51.434;6.788;2024-02-04T01:58:30;11.00;99.90
9103;DHT22;4587;51.434;6.788;2024-02-04T02:00:56;11.00;99.90
9103;DHT22;4587;51.434;6.788;2024-02-04T02:03:23;11.00;99.90
9103;DHT22;4587;51.434;6.788;2024-02-04T02:05:49;11.00;99.90
9103;DHT22;4587;51.434;6.788;2024-02-04T02:08:15;11.00;99.90
9103;DHT22;4587;51.434;6.788;2024-02-04T02:10:41;11.00;99.90
9103;DHT22;4587;51.434;6.788;2024-02-04T02:13:27;11.00;99.90
9103;DHT22;4587;51.434;6.788;2024-02-04T02:16:07;11.00;99.90
9103;DHT22;4587;51.434;6.788;2024-02-04T02:18:44;11.00;99.90
9103;DHT22;4587;51.434;6.788;2024-02-04T02:26:31;11.00;99.90
9103;DHT22;4587;51.434;6.788;2024-02-04T02:28:58;11.10;99.90
9103;DHT22;4587;51.434;6.788;2024-02-04T02:31:23;11.10;99.90
9103;DHT22;4587;51.434;6.788;2024-02-04T02:33:49;11.10;99.90
9103;DHT22;4587;51.434;6.788;2024-02-04T02:36:21;11.10;99.90
9103;DHT22;4587;51.434;6.788;2024-02-04T02:39:01;11.00;99.90
9103;DHT22;4587;51.434;6.788;2024-02-04T02:41:34;11.00;99.90
9103;DHT22;4587;51.434;6.788;2024-02-04T02:44:01;11.00;99.90
9103;DHT22;4587;51.434;6.788;2024-02-04T02:46:28;11.10;99.90
9103;DHT22;4587;51.434;6.788;2024-02-04T02:48:54;11.10;99.90
9103;DHT22;4587;51.434;6.788;2024-02-04T02:51:19;11.00;99.90
9103;DHT22;4587;51.434;6.788;2024-02-04T02:53:45;11.00;99.90
9103;DHT22;4587;51.434;6.788;2024-02-04T02:56:11;11.00;99.90
9103;DHT22;4587;51.434;6.788;2024-02-04T02:58:36;11.00;99.90
9103;DHT22;4587;51.434;6.788;2024-02-04T03:01:02;11.10;99.90
9103;DHT22;4587;51.434;6.788;2024-02-04T03:03:28;11.10;99.90
9103;DHT22;4587;51.434;6.788;2024-02-04T03:05:53;11.10;99.90
9103;DHT22;4587;51.434;6.788;2024-02-04T03:08:19;11.10;99.90
9103;DHT22;4587;51.434;6.788;2024-02-04T03:10:44;11.10;99.90
9103;DHT22;4587;51.434;6.788;2024-02-04T03:13:10;11.10;99.90
9103;DHT22;4587;51.434;6.788;2024-02-04T03:15:35;11.10;99.90
9103;DHT22;4587;51.434;6.788;2024-02-04T03:18:01;11.10;99.90
9103;DHT22;4587;51.434;6.788;2024-02-04T03:20:26;11.10;99.90
9103;DHT22;4587;51.434;6.788;2024-02-04T03:22:52;11.10;99.90
9103;DHT22;4587;51.434;6.788;2024-02-04T03:25:17;11.10;99.90
9103;DHT22;4587;51.434;6.788;2024-02-04T03:27:43;11.10;99.90
9103;DHT22;4587;51.434;6.788;2024-02-04T03:30:09;11.00;99.90
9103;DHT22;4587;51.434;6.788;2024-02-04T03:32:35;11.00;99.90
9103;DHT22;4587;51.434;6.788;2024-02-04T03:35:01;11.10;99.90
9103;DHT22;4587;51.434;6.788;2024-02-04T03:37:27;11.00;99.90
9103;DHT22;4587;51.434;6.788;2024-02-04T03:39:53;11.10;99.90
9103;DHT22;4587;51.434;6.788;2024-02-04T03:42:18;11.10;99.90
9103;DHT22;4587;51.434;6.788;2024-02-04T03:44:46;11.10;99.90
9103;DHT22;4587;51.434;6.788;2024-02-04T03:47:12;11.10;99.90
9103;DHT22;4587;51.434;6.788;2024-02-04T03:49:37;11.10;99.90
9103;DHT22;4587;51.434;6.788;2024-02-04T03:52:03;11.10;99.90
9103;DHT22;4587;51.434;6.788;2024-02-04T03:54:29;11.10;99.90
9103;DHT22;4587;51.434;6.788;2024-02-04T03:56:54;11.10;99.90
9103;DHT22;4587;51.434;6.788;2024-02-04T03:59:20;11.10;99.90
9103;DHT22;4587;51.434;6.788;2024-02-04T04:01:49;11.10;99.90
9103;DHT22;4587;51.434;6.788;2024-02-04T04:04:20;11.10;99.90
9103;DHT22;4587;51.434;6.788;2024-02-04T04:06:46;11.20;99.90
9103;DHT22;4587;51.434;6.788;2024-02-04T04:09:12;11.20;99.90
9103;DHT22;4587;51.434;6.788;2024-02-04T04:11:37;11.30;99.90
9103;DHT22;4587;51.434;6.788;2024-02-04T04:14:03;11.20;99.90
9103;DHT22;4587;51.434;6.788;2024-02-04T04:16:29;11.20;99.90
9103;DHT22;4587;51.434;6.788;2024-02-04T04:18:54;11.20;99.90
9103;DHT22;4587;51.434;6.788;2024-02-04T04:21:20;11.20;99.90
9103;DHT22;4587;51.434;6.788;2024-02-04T04:23:46;11.20;99.90
9103;DHT22;4587;51.434;6.788;2024-02-04T04:26:11;11.30;99.90
9103;DHT22;4587;51.434;6.788;2024-02-04T04:28:37;11.20;99.90
9103;DHT22;4587;51.434;6.788;2024-02-04T04:31:02;11.20;99.90
9103;DHT22;4587;51.434;6.788;2024-02-04T04:33:28;11.20;99.90
9103;DHT22;4587;51.434;6.788;2024-02-04T04:35:54;11.10;99.90
9103;DHT22;4587;51.434;6.788;2024-02-04T04:38:20;11.10;99.90
9103;DHT22;4587;51.434;6.788;2024-02-04T04:40:45;11.20;99.90
9103;DHT22;4587;51.434;6.788;2024-02-04T04:43:11;11.20;99.90
9103;DHT22;4587;51.434;6.788;2024-02-04T04:45:36;11.20;99.90
9103;DHT22;4587;51.434;6.788;2024-02-04T04:48:02;11.20;99.90
9103;DHT22;4587;51.434;6.788;2024-02-04T04:50:27;11.20;99.90
9103;DHT22;4587;51.434;6.788;2024-02-04T04:52:53;11.20;99.90
9103;DHT22;4587;51.434;6.788;2024-02-04T04:55:19;11.20;99.90
9103;DHT22;4587;51.434;6.788;2024-02-04T04:57:44;11.30;99.90
9103;DHT22;4587;51.434;6.788;2024-02-04T05:00:10;11.20;99.90
9103;DHT22;4587;51.434;6.788;2024-02-04T05:02:39;11.20;99.90
9103;DHT22;4587;51.434;6.788;2024-02-04T05:05:05;11.20;99.90
9103;DHT22;4587;51.434;6.788;2024-02-04T05:07:31;11.20;99.90
9103;DHT22;4587;51.434;6.788;2024-02-04T05:09:56;11.20;99.90
9103;DHT22;4587;51.434;6.788;2024-02-04T05:12:22;11.20;99.90
9103;DHT22;4587;51.434;6.788;2024-02-04T05:14:48;11.20;99.90
9103;DHT22;4587;51.434;6.788;2024-02-04T05:17:13;11.20;99.90
9103;DHT22;4587;51.434;6.788;2024-02-04T05:19:41;11.20;99.90
9103;DHT22;4587;51.434;6.788;2024-02-04T05:22:07;11.20;99.90
9103;DHT22;4587;51.434;6.788;2024-02-04T05:24:33;11.20;99.90
9103;DHT22;4587;51.434;6.788;2024-02-04T05:26:58;11.20;99.90
9103;DHT22;4587;51.434;6.788;2024-02-04T05:29:24;11.10;99.90
9103;DHT22;4587;51.434;6.788;2024-02-04T05:31:49;11.20;99.90
9103;DHT22;4587;51.434;6.788;2024-02-04T05:34:15;11.20;99.90
9103;DHT22;4587;51.434;6.788;2024-02-04T05:36:40;11.20;99.90
9103;DHT22;4587;51.434;6.788;2024-02-04T05:39:14;11.20;99.90
9103;DHT22;4587;51.434;6.788;2024-02-04T05:41:40;11.20;99.90
9103;DHT22;4587;51.434;6.788;2024-02-04T05:44:06;11.20;99.90
9103;DHT22;4587;51.434;6.788;2024-02-04T05:46:36;11.20;99.90
9103;DHT22;4587;51.434;6.788;2024-02-04T05:49:02;11.20;99.90
9103;DHT22;4587;51.434;6.788;2024-02-04T05:51:28;11.20;99.90
9103;DHT22;4587;51.434;6.788;2024-02-04T05:53:54;11.30;99.90
9103;DHT22;4587;51.434;6.788;2024-02-04T05:56:19;11.30;99.90
9103;DHT22;4587;51.434;6.788;2024-02-04T05:58:46;11.20;99.90
9103;DHT22;4587;51.434;6.788;2024-02-04T06:01:11;11.20;99.90
9103;DHT22;4587;51.434;6.788;2024-02-04T06:03:37;11.20;99.90
9103;DHT22;4587;51.434;6.788;2024-02-04T06:06:02;11.20;99.90
9103;DHT22;4587;51.434;6.788;2024-02-04T06:08:28;11.30;99.90
9103;DHT22;4587;51.434;6.788;2024-02-04T06:10:53;11.30;99.90
9103;DHT22;4587;51.434;6.788;2024-02-04T06:13:19;11.30;99.90
9103;DHT22;4587;51.434;6.788;2024-02-04T06:15:45;11.30;99.90
9103;DHT22;4587;51.434;6.788;2024-02-04T06:18:10;11.30;99.90
9103;DHT22;4587;51.434;6.788;2024-02-04T06:20:36;11.30;99.90
9103;DHT22;4587;51.434;6.788;2024-02-04T06:23:01;11.40;99.90
9103;DHT22;4587;51.434;6.788;2024-02-04T06:25:27;11.30;99.90
9103;DHT22;4587;51.434;6.788;2024-02-04T06:27:52;11.40;99.90
9103;DHT22;4587;51.434;6.788;2024-02-04T06:30:18;11.40;99.90
9103;DHT22;4587;51.434;6.788;2024-02-04T06:32:44;11.50;99.90
9103;DHT22;4587;51.434;6.788;2024-02-04T06:35:09;11.50;99.90
9103;DHT22;4587;51.434;6.788;2024-02-04T06:37:35;11.40;99.90
9103;DHT22;4587;51.434;6.788;2024-02-04T06:40:00;11.30;99.90
9103;DHT22;4587;51.434;6.788;2024-02-04T06:42:26;11.30;99.90
9103;DHT22;4587;51.434;6.788;2024-02-04T06:44:51;11.30;99.90
9103;DHT22;4587;51.434;6.788;2024-02-04T06:47:17;11.30;99.90
9103;DHT22;4587;51.434;6.788;2024-02-04T06:49:45;11.30;99.90
9103;DHT22;4587;51.434;6.788;2024-02-04T06:52:11;11.30;99.90
9103;DHT22;4587;51.434;6.788;2024-02-04T06:54:36;11.20;99.90
9103;DHT22;4587;51.434;6.788;2024-02-04T06:57:02;11.20;99.90
9103;DHT22;4587;51.434;6.788;2024-02-04T06:59:27;11.20;99.90
9103;DHT22;4587;51.434;6.788;2024-02-04T07:01:53;11.30;99.90
9103;DHT22;4587;51.434;6.788;2024-02-04T07:04:19;11.20;99.90
9103;DHT22;4587;51.434;6.788;2024-02-04T07:06:47;11.20;99.90
9103;DHT22;4587;51.434;6.788;2024-02-04T07:09:12;11.20;99.90
9103;DHT22;4587;51.434;6.788;2024-02-04T07:11:38;11.20;99.90
9103;DHT22;4587;51.434;6.788;2024-02-04T07:14:04;11.20;99.90
9103;DHT22;4587;51.434;6.788;2024-02-04T07:16:31;11.20;99.90
9103;DHT22;4587;51.434;6.788;2024-02-04T07:18:57;11.20;99.90
9103;DHT22;4587;51.434;6.788;2024-02-04T07:21:22;11.20;99.90
9103;DHT22;4587;51.434;6.788;2024-02-04T07:23:48;11.20;99.90
9103;DHT22;4587;51.434;6.788;2024-02-04T07:26:14;11.20;99.90
9103;DHT22;4587;51.434;6.788;2024-02-04T07:28:39;11.20;99.90
9103;DHT22;4587;51.434;6.788;2024-02-04T07:31:05;11.20;99.90
9103;DHT22;4587;51.434;6.788;2024-02-04T07:33:30;11.20;99.90
9103;DHT22;4587;51.434;6.788;2024-02-04T07:35:56;11.20;99.90
9103;DHT22;4587;51.434;6.788;2024-02-04T07:38:21;11.20;99.90
9103;DHT22;4587;51.434;6.788;2024-02-04T07:40:47;11.20;99.90
9103;DHT22;4587;51.434;6.788;2024-02-04T07:43:12;11.20;99.90
9103;DHT22;4587;51.434;6.788;2024-02-04T07:45:38;11.20;99.90
9103;DHT22;4587;51.434;6.788;2024-02-04T07:48:04;11.20;99.90
9103;DHT22;4587;51.434;6.788;2024-02-04T07:50:29;11.20;99.90
9103;DHT22;4587;51.434;6.788;2024-02-04T07:52:55;11.20;99.90
9103;DHT22;4587;51.434;6.788;2024-02-04T07:55:20;11.20;99.90
9103;DHT22;4587;51.434;6.788;2024-02-04T07:57:46;11.20;99.90
9103;DHT22;4587;51.434;6.788;2024-02-04T08:00:12;11.20;99.90
9103;DHT22;4587;51.434;6.788;2024-02-04T08:02:38;11.30;99.90
9103;DHT22;4587;51.434;6.788;2024-02-04T08:05:04;11.20;99.90
9103;DHT22;4587;51.434;6.788;2024-02-04T08:07:30;11.30;99.90
9103;DHT22;4587;51.434;6.788;2024-02-04T08:09:56;11.30;99.90
9103;DHT22;4587;51.434;6.788;2024-02-04T08:12:21;11.20;99.90
9103;DHT22;4587;51.434;6.788;2024-02-04T08:14:47;11.20;99.90
9103;DHT22;4587;51.434;6.788;2024-02-04T08:17:13;11.20;99.90
9103;DHT22;4587;51.434;6.788;2024-02-04T08:19:38;11.20;99.90
9103;DHT22;4587;51.434;6.788;2024-02-04T08:22:04;11.10;99.90
9103;DHT22;4587;51.434;6.788;2024-02-04T08:24:31;11.10;99.90
9103;DHT22;4587;51.434;6.788;2024-02-04T08:26:57;11.20;99.90
9103;DHT22;4587;51.434;6.788;2024-02-04T08:29:24;11.20;99.90
9103;DHT22;4587;51.434;6.788;2024-02-04T08:31:50;11.10;99.90
9103;DHT22;4587;51.434;6.788;2024-02-04T08:34:15;11.10;99.90
9103;DHT22;4587;51.434;6.788;2024-02-04T08:36:41;11.10;99.90
9103;DHT22;4587;51.434;6.788;2024-02-04T08:39:07;11.10;99.90
9103;DHT22;4587;51.434;6.788;2024-02-04T08:41:32;11.10;99.90
9103;DHT22;4587;51.434;6.788;2024-02-04T08:43:58;11.10;99.90
9103;DHT22;4587;51.434;6.788;2024-02-04T08:46:23;11.10;99.90
9103;DHT22;4587;51.434;6.788;2024-02-04T08:48:49;11.10;99.90
9103;DHT22;4587;51.434;6.788;2024-02-04T08:51:14;11.10;99.90
9103;DHT22;4587;51.434;6.788;2024-02-04T08:53:41;11.10;99.90
9103;DHT22;4587;51.434;6.788;2024-02-04T08:56:08;11.10;99.90
9103;DHT22;4587;51.434;6.788;2024-02-04T08:58:34;11.20;99.90
9103;DHT22;4587;51.434;6.788;2024-02-04T09:01:00;11.10;99.90
9103;DHT22;4587;51.434;6.788;2024-02-04T09:03:26;11.20;99.90
9103;DHT22;4587;51.434;6.788;2024-02-04T09:05:51;11.20;99.90
9103;DHT22;4587;51.434;6.788;2024-02-04T09:08:17;11.20;99.90
9103;DHT22;4587;51.434;6.788;2024-02-04T09:10:42;11.20;99.90
9103;DHT22;4587;51.434;6.788;2024-02-04T09:13:08;11.20;99.90
9103;DHT22;4587;51.434;6.788;2024-02-04T09:15:33;11.20;99.90
9103;DHT22;4587;51.434;6.788;2024-02-04T09:17:59;11.20;99.90
9103;DHT22;4587;51.434;6.788;2024-02-04T09:20:24;11.40;99.90
9103;DHT22;4587;51.434;6.788;2024-02-04T09:22:50;11.50;99.90
9103;DHT22;4587;51.434;6.788;2024-02-04T09:25:15;11.50;99.90
9103;DHT22;4587;51.434;6.788;2024-02-04T09:27:41;11.50;99.90
9103;DHT22;4587;51.434;6.788;2024-02-04T09:30:06;11.50;99.90
9103;DHT22;4587;51.434;6.788;2024-02-04T09:32:32;11.60;99.90
9103;DHT22;4587;51.434;6.788;2024-02-04T09:34:59;11.60;99.90
9103;DHT22;4587;51.434;6.788;2024-02-04T09:37:24;11.60;99.90
9103;DHT22;4587;51.434;6.788;2024-02-04T09:39:50;11.70;99.90
9103;DHT22;4587;51.434;6.788;2024-02-04T09:42:20;11.70;99.90
9103;DHT22;4587;51.434;6.788;2024-02-04T09:44:50;11.70;99.90
9103;DHT22;4587;51.434;6.788;2024-02-04T09:47:16;11.70;99.90
9103;DHT22;4587;51.434;6.788;2024-02-04T09:49:42;11.70;99.90
9103;DHT22;4587;51.434;6.788;2024-02-04T09:52:09;11.60;99.90
9103;DHT22;4587;51.434;6.788;2024-02-04T09:54:43;11.60;99.90
9103;DHT22;4587;51.434;6.788;2024-02-04T09:57:09;11.60;99.90
9103;DHT22;4587;51.434;6.788;2024-02-04T09:59:35;11.60;99.90
9103;DHT22;4587;51.434;6.788;2024-02-04T10:02:03;11.60;99.90
9103;DHT22;4587;51.434;6.788;2024-02-04T10:04:28;11.60;99.90
9103;DHT22;4587;51.434;6.788;2024-02-04T10:06:54;11.50;99.90
9103;DHT22;4587;51.434;6.788;2024-02-04T10:09:20;11.50;99.90
9103;DHT22;4587;51.434;6.788;2024-02-04T10:11:46;11.50;99.90
9103;DHT22;4587;51.434;6.788;2024-02-04T10:14:11;11.50;99.90
9103;DHT22;4587;51.434;6.788;2024-02-04T10:16:37;11.60;99.90
9103;DHT22;4587;51.434;6.788;2024-02-04T10:19:02;11.70;99.90
9103;DHT22;4587;51.434;6.788;2024-02-04T10:21:28;11.70;99.90
9103;DHT22;4587;51.434;6.788;2024-02-04T10:23:54;11.80;99.90
9103;DHT22;4587;51.434;6.788;2024-02-04T10:26:21;11.80;99.90
9103;DHT22;4587;51.434;6.788;2024-02-04T10:28:47;11.90;99.90
9103;DHT22;4587;51.434;6.788;2024-02-04T10:31:13;11.90;99.90
9103;DHT22;4587;51.434;6.788;2024-02-04T10:33:39;12.00;99.90
9103;DHT22;4587;51.434;6.788;2024-02-04T10:36:05;12.10;99.90
9103;DHT22;4587;51.434;6.788;2024-02-04T10:38:32;12.10;99.90
9103;DHT22;4587;51.434;6.788;2024-02-04T10:41:00;12.20;99.90
9103;DHT22;4587;51.434;6.788;2024-02-04T10:43:32;12.10;99.90
9103;DHT22;4587;51.434;6.788;2024-02-04T10:46:10;12.10;99.90
9103;DHT22;4587;51.434;6.788;2024-02-04T10:48:37;12.20;99.90
9103;DHT22;4587;51.434;6.788;2024-02-04T10:51:14;12.20;99.90
9103;DHT22;4587;51.434;6.788;2024-02-04T10:53:41;12.30;99.90
9103;DHT22;4587;51.434;6.788;2024-02-04T10:58:52;12.30;99.90
9103;DHT22;4587;51.434;6.788;2024-02-04T11:01:18;12.30;99.90
9103;DHT22;4587;51.434;6.788;2024-02-04T11:03:45;12.20;99.90
9103;DHT22;4587;51.434;6.788;2024-02-04T11:06:12;12.20;99.90
9103;DHT22;4587;51.434;6.788;2024-02-04T11:08:38;12.10;99.90
9103;DHT22;4587;51.434;6.788;2024-02-04T11:11:04;12.10;99.90
9103;DHT22;4587;51.434;6.788;2024-02-04T11:13:31;12.00;99.90
9103;DHT22;4587;51.434;6.788;2024-02-04T11:15:58;12.00;99.90
9103;DHT22;4587;51.434;6.788;2024-02-04T11:21:55;11.90;99.90
9103;DHT22;4587;51.434;6.788;2024-02-04T11:27:28;11.90;99.90
9103;DHT22;4587;51.434;6.788;2024-02-04T11:29:54;11.90;99.90
9103;DHT22;4587;51.434;6.788;2024-02-04T11:32:20;11.90;99.90
9103;DHT22;4587;51.434;6.788;2024-02-04T11:34:46;11.90;99.90
9103;DHT22;4587;51.434;6.788;2024-02-04T11:37:19;11.90;99.90
9103;DHT22;4587;51.434;6.788;2024-02-04T11:39:51;11.90;99.90
9103;DHT22;4587;51.434;6.788;2024-02-04T11:42:17;11.90;99.90
9103;DHT22;4587;51.434;6.788;2024-02-04T11:44:43;11.90;99.90
9103;DHT22;4587;51.434;6.788;2024-02-04T11:47:10;11.90;99.90
9103;DHT22;4587;51.434;6.788;2024-02-04T11:49:35;12.00;99.90
9103;DHT22;4587;51.434;6.788;2024-02-04T11:52:01;11.90;99.90
9103;DHT22;4587;51.434;6.788;2024-02-04T11:54:27;12.00;99.90
9103;DHT22;4587;51.434;6.788;2024-02-04T11:56:52;12.00;99.90
9103;DHT22;4587;51.434;6.788;2024-02-04T11:59:20;12.10;99.90
9103;DHT22;4587;51.434;6.788;2024-02-04T12:01:47;12.10;99.90
9103;DHT22;4587;51.434;6.788;2024-02-04T12:04:15;12.10;99.90
9103;DHT22;4587;51.434;6.788;2024-02-04T12:06:41;12.10;99.90
9103;DHT22;4587;51.434;6.788;2024-02-04T12:09:08;12.20;99.90
9103;DHT22;4587;51.434;6.788;2024-02-04T12:11:36;12.20;99.90
9103;DHT22;4587;51.434;6.788;2024-02-04T12:14:04;12.20;99.90
9103;DHT22;4587;51.434;6.788;2024-02-04T12:16:31;12.20;99.90
9103;DHT22;4587;51.434;6.788;2024-02-04T12:18:57;12.20;99.90
9103;DHT22;4587;51.434;6.788;2024-02-04T12:21:24;12.20;99.90
9103;DHT22;4587;51.434;6.788;2024-02-04T12:23:50;12.20;99.90
9103;DHT22;4587;51.434;6.788;2024-02-04T12:26:16;12.30;99.90
9103;DHT22;4587;51.434;6.788;2024-02-04T12:28:42;12.30;99.90
9103;DHT22;4587;51.434;6.788;2024-02-04T12:31:07;12.20;99.90
9103;DHT22;4587;51.434;6.788;2024-02-04T12:33:33;12.30;99.90
9103;DHT22;4587;51.434;6.788;2024-02-04T12:35:59;12.20;99.90
9103;DHT22;4587;51.434;6.788;2024-02-04T12:38:25;12.30;99.90
9103;DHT22;4587;51.434;6.788;2024-02-04T12:40:51;12.30;99.90
9103;DHT22;4587;51.434;6.788;2024-02-04T12:43:17;12.30;99.90
9103;DHT22;4587;51.434;6.788;2024-02-04T12:45:43;12.30;99.90
9103;DHT22;4587;51.434;6.788;2024-02-04T12:48:08;12.20;99.90
9103;DHT22;4587;51.434;6.788;2024-02-04T12:50:37;12.20;99.90
9103;DHT22;4587;51.434;6.788;2024-02-04T12:53:08;12.20;99.90
9103;DHT22;4587;51.434;6.788;2024-02-04T12:55:35;12.20;99.90
9103;DHT22;4587;51.434;6.788;2024-02-04T12:58:10;12.20;99.90
9103;DHT22;4587;51.434;6.788;2024-02-04T13:00:42;12.20;99.90
9103;DHT22;4587;51.434;6.788;2024-02-04T13:03:08;12.20;99.90
9103;DHT22;4587;51.434;6.788;2024-02-04T13:05:35;12.20;99.90
9103;DHT22;4587;51.434;6.788;2024-02-04T13:08:02;12.20;99.90
9103;DHT22;4587;51.434;6.788;2024-02-04T13:10:30;12.20;99.90
9103;DHT22;4587;51.434;6.788;2024-02-04T13:15:30;12.20;99.90
9103;DHT22;4587;51.434;6.788;2024-02-04T13:17:56;12.20;99.90
9103;DHT22;4587;51.434;6.788;2024-02-04T13:20:22;12.20;99.90
9103;DHT22;4587;51.434;6.788;2024-02-04T13:22:48;12.20;99.90
9103;DHT22;4587;51.434;6.788;2024-02-04T13:25:13;12.20;99.90
9103;DHT22;4587;51.434;6.788;2024-02-04T13:27:40;12.20;99.90
9103;DHT22;4587;51.434;6.788;2024-02-04T13:30:06;12.10;99.90
9103;DHT22;4587;51.434;6.788;2024-02-04T13:32:40;12.10;99.90
9103;DHT22;4587;51.434;6.788;2024-02-04T13:35:06;12.10;99.90
9103;DHT22;4587;51.434;6.788;2024-02-04T13:37:41;12.00;99.90
9103;DHT22;4587;51.434;6.788;2024-02-04T13:40:07;12.00;99.90
9103;DHT22;4587;51.434;6.788;2024-02-04T13:42:34;12.00;99.90
9103;DHT22;4587;51.434;6.788;2024-02-04T13:45:01;12.00;99.90
9103;DHT22;4587;51.434;6.788;2024-02-04T13:47:27;12.00;99.90
9103;DHT22;4587;51.434;6.788;2024-02-04T13:49:53;12.00;99.90
9103;DHT22;4587;51.434;6.788;2024-02-04T13:52:18;11.90;99.90
9103;DHT22;4587;51.434;6.788;2024-02-04T13:54:44;12.00;99.90
9103;DHT22;4587;51.434;6.788;2024-02-04T13:57:09;12.00;99.90
9103;DHT22;4587;51.434;6.788;2024-02-04T13:59:36;11.90;99.90
9103;DHT22;4587;51.434;6.788;2024-02-04T14:02:01;11.90;99.90
9103;DHT22;4587;51.434;6.788;2024-02-04T14:04:27;12.00;99.90
9103;DHT22;4587;51.434;6.788;2024-02-04T14:06:53;12.00;99.90
9103;DHT22;4587;51.434;6.788;2024-02-04T14:09:18;11.90;99.90
9103;DHT22;4587;51.434;6.788;2024-02-04T14:11:44;11.90;99.90
9103;DHT22;4587;51.434;6.788;2024-02-04T14:14:09;11.90;99.90
9103;DHT22;4587;51.434;6.788;2024-02-04T14:16:35;11.80;99.90
9103;DHT22;4587;51.434;6.788;2024-02-04T14:19:00;11.90;99.90
9103;DHT22;4587;51.434;6.788;2024-02-04T14:21:26;11.90;99.90
9103;DHT22;4587;51.434;6.788;2024-02-04T14:23:51;12.00;99.90
9103;DHT22;4587;51.434;6.788;2024-02-04T14:26:20;11.90;99.90
9103;DHT22;4587;51.434;6.788;2024-02-04T14:28:46;11.90;99.90
9103;DHT22;4587;51.434;6.788;2024-02-04T14:31:12;11.90;99.90
9103;DHT22;4587;51.434;6.788;2024-02-04T14:33:37;11.90;99.90
9103;DHT22;4587;51.434;6.788;2024-02-04T14:36:03;11.80;99.90
9103;DHT22;4587;51.434;6.788;2024-02-04T14:38:29;11.80;99.90
9103;DHT22;4587;51.434;6.788;2024-02-04T14:40:57;11.90;99.90
9103;DHT22;4587;51.434;6.788;2024-02-04T14:43:23;11.90;99.90
9103;DHT22;4587;51.434;6.788;2024-02-04T14:45:49;11.80;99.90
9103;DHT22;4587;51.434;6.788;2024-02-04T14:48:15;11.80;99.90
9103;DHT22;4587;51.434;6.788;2024-02-04T14:50:40;11.80;99.90
9103;DHT22;4587;51.434;6.788;2024-02-04T14:53:06;11.80;99.90
9103;DHT22;4587;51.434;6.788;2024-02-04T14:55:32;11.80;99.90
9103;DHT22;4587;51.434;6.788;2024-02-04T14:57:58;11.80;99.90
9103;DHT22;4587;51.434;6.788;2024-02-04T15:00:23;11.80;99.90
9103;DHT22;4587;51.434;6.788;2024-02-04T15:02:51;11.80;99.90
9103;DHT22;4587;51.434;6.788;2024-02-04T15:05:16;11.80;99.90
9103;DHT22;4587;51.434;6.788;2024-02-04T15:07:42;11.80;99.90
9103;DHT22;4587;51.434;6.788;2024-02-04T15:10:08;11.80;99.90
9103;DHT22;4587;51.434;6.788;2024-02-04T15:12:36;11.80;99.90
9103;DHT22;4587;51.434;6.788;2024-02-04T15:15:02;11.90;99.90
9103;DHT22;4587;51.434;6.788;2024-02-04T15:17:28;11.90;99.90
9103;DHT22;4587;51.434;6.788;2024-02-04T15:19:54;11.90;99.90
9103;DHT22;4587;51.434;6.788;2024-02-04T15:22:20;11.90;99.90
9103;DHT22;4587;51.434;6.788;2024-02-04T15:24:46;11.90;99.90
9103;DHT22;4587;51.434;6.788;2024-02-04T15:27:12;11.90;99.90
9103;DHT22;4587;51.434;6.788;2024-02-04T15:29:38;11.90;99.90
9103;DHT22;4587;51.434;6.788;2024-02-04T15:32:04;11.90;99.90
9103;DHT22;4587;51.434;6.788;2024-02-04T15:34:31;11.90;99.90
9103;DHT22;4587;51.434;6.788;2024-02-04T15:37:02;12.00;99.90
9103;DHT22;4587;51.434;6.788;2024-02-04T15:39:28;11.90;99.90
9103;DHT22;4587;51.434;6.788;2024-02-04T15:41:53;12.00;99.90
9103;DHT22;4587;51.434;6.788;2024-02-04T15:44:19;12.00;99.90
9103;DHT22;4587;51.434;6.788;2024-02-04T15:46:45;12.10;99.90
9103;DHT22;4587;51.434;6.788;2024-02-04T15:49:13;12.10;99.90
9103;DHT22;4587;51.434;6.788;2024-02-04T15:51:39;12.00;99.90
9103;DHT22;4587;51.434;6.788;2024-02-04T15:54:05;12.00;99.90
9103;DHT22;4587;51.434;6.788;2024-02-04T15:56:34;11.90;99.90
9103;DHT22;4587;51.434;6.788;2024-02-04T15:59:06;11.90;99.90
9103;DHT22;4587;51.434;6.788;2024-02-04T16:01:34;12.00;99.90
9103;DHT22;4587;51.434;6.788;2024-02-04T16:04:00;12.00;99.90
9103;DHT22;4587;51.434;6.788;2024-02-04T16:06:26;12.00;99.90
9103;DHT22;4587;51.434;6.788;2024-02-04T16:08:52;12.00;99.90
9103;DHT22;4587;51.434;6.788;2024-02-04T16:11:19;11.90;99.90
9103;DHT22;4587;51.434;6.788;2024-02-04T16:13:45;12.00;99.90